sensor_id;sensor_type;location;lat;lon;timestamp;P1;durP1;ratioP1;P2;durP2;ratioP2
15637;SDS011;26604;53.596;10.042;2023-08-31T00:00:00;10.00;;;7.35;;
15637;SDS011;26604;53.596;10.042;2023-08-31T00:02:29;12.73;;;7.72;;
15637;SDS011;26604;53.596;10.042;2023-08-31T00:04:56;9.30;;;6.63;;
15637;SDS011;26604;53.596;10.042;2023-08-31T00:07:25;9.32;;;6.85;;
15637;SDS011;26604;53.596;10.042;2023-08-31T00:09:51;9.50;;;7.05;;
15637;SDS011;26604;53.596;10.042;2023-08-31T00:12:19;9.98;;;6.43;;
15637;SDS011;26604;53.596;10.042;2023-08-31T00:14:47;9.65;;;7.05;;
15637;SDS011;26604;53.596;10.042;2023-08-31T00:17:15;10.60;;;7.13;;
15637;SDS011;26604;53.596;10.042;2023-08-31T00:19:43;10.38;;;7.05;;
15637;SDS011;26604;53.596;10.042;2023-08-31T00:22:09;9.68;;;7.10;;
15637;SDS011;26604;53.596;10.042;2023-08-31T00:24:38;9.60;;;6.32;;
15637;SDS011;26604;53.596;10.042;2023-08-31T00:27:04;9.90;;;6.38;;
15637;SDS011;26604;53.596;10.042;2023-08-31T00:29:31;8.65;;;6.50;;
15637;SDS011;26604;53.596;10.042;2023-08-31T00:31:58;10.02;;;7.05;;
15637;SDS011;26604;53.596;10.042;2023-08-31T00:34:25;9.88;;;6.90;;
15637;SDS011;26604;53.596;10.042;2023-08-31T00:36:52;8.50;;;6.28;;
15637;SDS011;26604;53.596;10.042;2023-08-31T00:39:19;8.60;;;6.35;;
15637;SDS011;26604;53.596;10.042;2023-08-31T00:41:48;8.65;;;6.55;;
15637;SDS011;26604;53.596;10.042;2023-08-31T00:44:15;8.38;;;5.95;;
15637;SDS011;26604;53.596;10.042;2023-08-31T00:46:42;6.82;;;5.40;;
15637;SDS011;26604;53.596;10.042;2023-08-31T00:49:10;7.75;;;5.40;;
15637;SDS011;26604;53.596;10.042;2023-08-31T00:51:37;9.65;;;6.22;;
15637;SDS011;26604;53.596;10.042;2023-08-31T00:54:05;9.07;;;5.85;;
15637;SDS011;26604;53.596;10.042;2023-08-31T00:56:33;8.98;;;6.53;;
15637;SDS011;26604;53.596;10.042;2023-08-31T00:59:01;8.77;;;6.13;;
15637;SDS011;26604;53.596;10.042;2023-08-31T01:01:30;9.82;;;6.07;;
15637;SDS011;26604;53.596;10.042;2023-08-31T01:04:04;7.80;;;5.65;;
15637;SDS011;26604;53.596;10.042;2023-08-31T01:06:41;8.48;;;5.90;;
15637;SDS011;26604;53.596;10.042;2023-08-31T01:09:22;9.20;;;6.10;;
15637;SDS011;26604;53.596;10.042;2023-08-31T01:11:56;8.00;;;5.32;;
15637;SDS011;26604;53.596;10.042;2023-08-31T01:14:31;12.50;;;5.55;;
15637;SDS011;26604;53.596;10.042;2023-08-31T01:17:01;7.38;;;5.30;;
15637;SDS011;26604;53.596;10.042;2023-08-31T01:19:40;12.35;;;6.07;;
15637;SDS011;26604;53.596;10.042;2023-08-31T01:22:13;10.20;;;5.78;;
15637;SDS011;26604;53.596;10.042;2023-08-31T01:24:45;11.13;;;5.45;;
15637;SDS011;26604;53.596;10.042;2023-08-31T01:27:12;7.78;;;5.68;;
15637;SDS011;26604;53.596;10.042;2023-08-31T01:29:40;8.52;;;5.80;;
15637;SDS011;26604;53.596;10.042;2023-08-31T01:32:07;11.02;;;6.18;;
15637;SDS011;26604;53.596;10.042;2023-08-31T01:34:34;8.00;;;5.68;;
15637;SDS011;26604;53.596;10.042;2023-08-31T01:37:03;11.90;;;5.57;;
15637;SDS011;26604;53.596;10.042;2023-08-31T01:39:39;11.20;;;6.10;;
15637;SDS011;26604;53.596;10.042;2023-08-31T01:42:12;10.38;;;5.47;;
15637;SDS011;26604;53.596;10.042;2023-08-31T01:44:42;8.95;;;5.50;;
15637;SDS011;26604;53.596;10.042;2023-08-31T01:47:13;10.27;;;5.63;;
15637;SDS011;26604;53.596;10.042;2023-08-31T01:49:44;10.70;;;5.57;;
15637;SDS011;26604;53.596;10.042;2023-08-31T01:52:11;7.93;;;5.22;;
15637;SDS011;26604;53.596;10.042;2023-08-31T01:54:38;8.98;;;5.22;;
15637;SDS011;26604;53.596;10.042;2023-08-31T01:57:05;8.50;;;5.47;;
15637;SDS011;26604;53.596;10.042;2023-08-31T01:59:33;7.32;;;5.20;;
15637;SDS011;26604;53.596;10.042;2023-08-31T02:02:00;8.13;;;5.30;;
15637;SDS011;26604;53.596;10.042;2023-08-31T02:04:27;9.15;;;5.78;;
15637;SDS011;26604;53.596;10.042;2023-08-31T02:06:54;10.60;;;5.72;;
15637;SDS011;26604;53.596;10.042;2023-08-31T02:09:21;7.05;;;4.93;;
15637;SDS011;26604;53.596;10.042;2023-08-31T02:11:48;10.57;;;5.43;;
15637;SDS011;26604;53.596;10.042;2023-08-31T02:14:15;10.77;;;6.07;;
15637;SDS011;26604;53.596;10.042;2023-08-31T02:16:43;10.43;;;5.70;;
15637;SDS011;26604;53.596;10.042;2023-08-31T02:19:09;12.07;;;5.75;;
15637;SDS011;26604;53.596;10.042;2023-08-31T02:21:36;11.30;;;6.18;;
15637;SDS011;26604;53.596;10.042;2023-08-31T02:24:03;9.05;;;5.90;;
15637;SDS011;26604;53.596;10.042;2023-08-31T02:26:31;11.05;;;6.55;;
15637;SDS011;26604;53.596;10.042;2023-08-31T02:28:59;9.82;;;6.30;;
15637;SDS011;26604;53.596;10.042;2023-08-31T02:31:25;9.50;;;6.15;;
15637;SDS011;26604;53.596;10.042;2023-08-31T02:33:54;11.20;;;6.13;;
15637;SDS011;26604;53.596;10.042;2023-08-31T02:36:20;9.13;;;6.00;;
15637;SDS011;26604;53.596;10.042;2023-08-31T02:38:47;10.15;;;5.72;;
15637;SDS011;26604;53.596;10.042;2023-08-31T02:41:15;9.93;;;6.13;;
15637;SDS011;26604;53.596;10.042;2023-08-31T02:43:42;8.68;;;5.78;;
15637;SDS011;26604;53.596;10.042;2023-08-31T02:46:09;8.70;;;5.38;;
15637;SDS011;26604;53.596;10.042;2023-08-31T02:48:45;9.75;;;5.78;;
15637;SDS011;26604;53.596;10.042;2023-08-31T02:51:14;10.80;;;5.60;;
15637;SDS011;26604;53.596;10.042;2023-08-31T02:53:41;6.97;;;5.63;;
15637;SDS011;26604;53.596;10.042;2023-08-31T02:56:08;10.75;;;5.93;;
15637;SDS011;26604;53.596;10.042;2023-08-31T02:58:34;9.40;;;5.57;;
15637;SDS011;26604;53.596;10.042;2023-08-31T03:01:08;11.75;;;6.15;;
15637;SDS011;26604;53.596;10.042;2023-08-31T03:03:36;11.15;;;5.63;;
15637;SDS011;26604;53.596;10.042;2023-08-31T03:06:03;10.23;;;5.40;;
15637;SDS011;26604;53.596;10.042;2023-08-31T03:08:33;8.90;;;5.90;;
15637;SDS011;26604;53.596;10.042;2023-08-31T03:11:01;9.13;;;5.78;;
15637;SDS011;26604;53.596;10.042;2023-08-31T03:13:28;11.45;;;5.80;;
15637;SDS011;26604;53.596;10.042;2023-08-31T03:15:55;9.50;;;5.18;;
15637;SDS011;26604;53.596;10.042;2023-08-31T03:18:22;10.77;;;5.80;;
15637;SDS011;26604;53.596;10.042;2023-08-31T03:20:49;10.15;;;5.07;;
15637;SDS011;26604;53.596;10.042;2023-08-31T03:23:16;7.00;;;5.18;;
15637;SDS011;26604;53.596;10.042;2023-08-31T03:25:45;9.95;;;4.95;;
15637;SDS011;26604;53.596;10.042;2023-08-31T03:28:11;8.45;;;4.78;;
15637;SDS011;26604;53.596;10.042;2023-08-31T03:30:38;10.40;;;5.30;;
15637;SDS011;26604;53.596;10.042;2023-08-31T03:33:05;9.15;;;5.07;;
15637;SDS011;26604;53.596;10.042;2023-08-31T03:35:32;11.02;;;5.03;;
15637;SDS011;26604;53.596;10.042;2023-08-31T03:37:59;7.55;;;5.05;;
15637;SDS011;26604;53.596;10.042;2023-08-31T03:40:26;11.40;;;4.70;;
15637;SDS011;26604;53.596;10.042;2023-08-31T03:42:55;7.32;;;5.15;;
15637;SDS011;26604;53.596;10.042;2023-08-31T03:45:21;8.15;;;4.55;;
15637;SDS011;26604;53.596;10.042;2023-08-31T03:47:48;8.43;;;5.13;;
15637;SDS011;26604;53.596;10.042;2023-08-31T03:50:15;5.80;;;4.22;;
15637;SDS011;26604;53.596;10.042;2023-08-31T03:52:42;7.40;;;3.92;;
15637;SDS011;26604;53.596;10.042;2023-08-31T03:55:09;6.60;;;4.15;;
15637;SDS011;26604;53.596;10.042;2023-08-31T03:57:36;7.78;;;3.85;;
15637;SDS011;26604;53.596;10.042;2023-08-31T04:00:05;8.38;;;4.45;;
15637;SDS011;26604;53.596;10.042;2023-08-31T04:02:33;7.85;;;3.92;;
15637;SDS011;26604;53.596;10.042;2023-08-31T04:05:00;6.03;;;3.83;;
15637;SDS011;26604;53.596;10.042;2023-08-31T04:07:30;5.82;;;3.83;;
15637;SDS011;26604;53.596;10.042;2023-08-31T04:09:57;9.50;;;4.00;;
15637;SDS011;26604;53.596;10.042;2023-08-31T04:12:24;7.85;;;3.75;;
15637;SDS011;26604;53.596;10.042;2023-08-31T04:14:51;6.03;;;3.35;;
15637;SDS011;26604;53.596;10.042;2023-08-31T04:17:19;7.72;;;3.35;;
15637;SDS011;26604;53.596;10.042;2023-08-31T04:19:46;7.70;;;3.97;;
15637;SDS011;26604;53.596;10.042;2023-08-31T04:22:13;8.55;;;3.50;;
15637;SDS011;26604;53.596;10.042;2023-08-31T04:24:40;5.47;;;3.58;;
15637;SDS011;26604;53.596;10.042;2023-08-31T04:27:06;6.63;;;3.80;;
15637;SDS011;26604;53.596;10.042;2023-08-31T04:29:33;5.57;;;3.38;;
15637;SDS011;26604;53.596;10.042;2023-08-31T04:32:01;6.53;;;3.83;;
15637;SDS011;26604;53.596;10.042;2023-08-31T04:34:29;8.05;;;3.60;;
15637;SDS011;26604;53.596;10.042;2023-08-31T04:36:56;7.32;;;3.92;;
15637;SDS011;26604;53.596;10.042;2023-08-31T04:39:23;7.00;;;3.40;;
15637;SDS011;26604;53.596;10.042;2023-08-31T04:41:51;9.65;;;3.65;;
15637;SDS011;26604;53.596;10.042;2023-08-31T04:44:18;6.82;;;4.00;;
15637;SDS011;26604;53.596;10.042;2023-08-31T04:46:45;7.93;;;4.03;;
15637;SDS011;26604;53.596;10.042;2023-08-31T04:49:12;10.30;;;4.20;;
15637;SDS011;26604;53.596;10.042;2023-08-31T04:51:40;9.27;;;4.13;;
15637;SDS011;26604;53.596;10.042;2023-08-31T04:54:10;11.18;;;4.60;;
15637;SDS011;26604;53.596;10.042;2023-08-31T04:56:37;9.85;;;3.67;;
15637;SDS011;26604;53.596;10.042;2023-08-31T04:59:03;7.68;;;3.95;;
15637;SDS011;26604;53.596;10.042;2023-08-31T05:01:30;7.28;;;3.92;;
15637;SDS011;26604;53.596;10.042;2023-08-31T05:03:57;9.30;;;4.25;;
15637;SDS011;26604;53.596;10.042;2023-08-31T05:06:25;7.13;;;3.72;;
15637;SDS011;26604;53.596;10.042;2023-08-31T05:08:53;15.60;;;4.38;;
15637;SDS011;26604;53.596;10.042;2023-08-31T05:11:20;9.00;;;3.58;;
15637;SDS011;26604;53.596;10.042;2023-08-31T05:13:47;10.45;;;3.95;;
15637;SDS011;26604;53.596;10.042;2023-08-31T05:16:14;9.35;;;3.70;;
15637;SDS011;26604;53.596;10.042;2023-08-31T05:18:41;8.55;;;4.20;;
15637;SDS011;26604;53.596;10.042;2023-08-31T05:21:08;6.47;;;3.67;;
15637;SDS011;26604;53.596;10.042;2023-08-31T05:23:35;7.05;;;3.70;;
15637;SDS011;26604;53.596;10.042;2023-08-31T05:26:03;7.03;;;3.80;;
15637;SDS011;26604;53.596;10.042;2023-08-31T05:28:30;7.30;;;3.42;;
15637;SDS011;26604;53.596;10.042;2023-08-31T05:30:57;9.60;;;4.20;;
15637;SDS011;26604;53.596;10.042;2023-08-31T05:33:25;11.68;;;3.92;;
15637;SDS011;26604;53.596;10.042;2023-08-31T05:35:53;6.82;;;3.40;;
15637;SDS011;26604;53.596;10.042;2023-08-31T05:38:20;9.43;;;4.35;;
15637;SDS011;26604;53.596;10.042;2023-08-31T05:40:48;7.15;;;3.95;;
15637;SDS011;26604;53.596;10.042;2023-08-31T05:43:16;9.05;;;4.05;;
15637;SDS011;26604;53.596;10.042;2023-08-31T05:45:43;6.50;;;3.60;;
15637;SDS011;26604;53.596;10.042;2023-08-31T05:48:11;8.25;;;3.80;;
15637;SDS011;26604;53.596;10.042;2023-08-31T05:50:39;8.85;;;3.67;;
15637;SDS011;26604;53.596;10.042;2023-08-31T05:53:08;9.40;;;3.53;;
15637;SDS011;26604;53.596;10.042;2023-08-31T05:55:35;6.38;;;3.05;;
15637;SDS011;26604;53.596;10.042;2023-08-31T05:58:02;4.78;;;3.20;;
15637;SDS011;26604;53.596;10.042;2023-08-31T06:00:31;8.82;;;3.25;;
15637;SDS011;26604;53.596;10.042;2023-08-31T06:02:58;8.05;;;3.67;;
15637;SDS011;26604;53.596;10.042;2023-08-31T06:05:25;8.18;;;3.45;;
15637;SDS011;26604;53.596;10.042;2023-08-31T06:07:52;8.45;;;3.08;;
15637;SDS011;26604;53.596;10.042;2023-08-31T06:10:19;6.07;;;2.80;;
15637;SDS011;26604;53.596;10.042;2023-08-31T06:12:48;6.97;;;3.20;;
15637;SDS011;26604;53.596;10.042;2023-08-31T06:15:15;8.25;;;3.10;;
15637;SDS011;26604;53.596;10.042;2023-08-31T06:17:43;7.97;;;2.92;;
15637;SDS011;26604;53.596;10.042;2023-08-31T06:20:10;4.53;;;2.80;;
15637;SDS011;26604;53.596;10.042;2023-08-31T06:22:37;9.13;;;3.28;;
15637;SDS011;26604;53.596;10.042;2023-08-31T06:25:04;13.07;;;3.22;;
15637;SDS011;26604;53.596;10.042;2023-08-31T06:27:33;9.57;;;3.17;;
15637;SDS011;26604;53.596;10.042;2023-08-31T06:30:00;9.45;;;3.53;;
15637;SDS011;26604;53.596;10.042;2023-08-31T06:32:28;8.48;;;2.88;;
15637;SDS011;26604;53.596;10.042;2023-08-31T06:34:56;7.60;;;2.55;;
15637;SDS011;26604;53.596;10.042;2023-08-31T06:37:23;5.05;;;2.97;;
15637;SDS011;26604;53.596;10.042;2023-08-31T06:39:50;5.82;;;2.65;;
15637;SDS011;26604;53.596;10.042;2023-08-31T06:42:16;9.30;;;2.67;;
15637;SDS011;26604;53.596;10.042;2023-08-31T06:44:43;6.60;;;2.53;;
15637;SDS011;26604;53.596;10.042;2023-08-31T06:47:10;6.50;;;2.33;;
15637;SDS011;26604;53.596;10.042;2023-08-31T06:49:38;4.30;;;2.58;;
15637;SDS011;26604;53.596;10.042;2023-08-31T06:52:07;6.95;;;2.83;;
15637;SDS011;26604;53.596;10.042;2023-08-31T06:54:33;5.90;;;2.92;;
15637;SDS011;26604;53.596;10.042;2023-08-31T06:57:00;6.05;;;2.65;;
15637;SDS011;26604;53.596;10.042;2023-08-31T06:59:28;7.63;;;2.95;;
15637;SDS011;26604;53.596;10.042;2023-08-31T07:01:54;6.20;;;2.45;;
15637;SDS011;26604;53.596;10.042;2023-08-31T07:04:22;8.05;;;2.55;;
15637;SDS011;26604;53.596;10.042;2023-08-31T07:06:49;7.15;;;2.30;;
15637;SDS011;26604;53.596;10.042;2023-08-31T07:09:18;6.32;;;2.60;;
15637;SDS011;26604;53.596;10.042;2023-08-31T07:11:45;4.82;;;2.00;;
15637;SDS011;26604;53.596;10.042;2023-08-31T07:14:12;4.82;;;2.17;;
15637;SDS011;26604;53.596;10.042;2023-08-31T07:16:39;5.63;;;2.10;;
15637;SDS011;26604;53.596;10.042;2023-08-31T07:19:06;6.13;;;2.13;;
15637;SDS011;26604;53.596;10.042;2023-08-31T07:21:32;6.18;;;2.33;;
15637;SDS011;26604;53.596;10.042;2023-08-31T07:23:59;7.40;;;2.40;;
15637;SDS011;26604;53.596;10.042;2023-08-31T07:26:28;5.97;;;2.10;;
15637;SDS011;26604;53.596;10.042;2023-08-31T07:28:55;6.13;;;2.15;;
15637;SDS011;26604;53.596;10.042;2023-08-31T07:31:22;6.82;;;1.98;;
15637;SDS011;26604;53.596;10.042;2023-08-31T07:33:49;6.53;;;1.95;;
15637;SDS011;26604;53.596;10.042;2023-08-31T07:36:16;6.63;;;1.80;;
15637;SDS011;26604;53.596;10.042;2023-08-31T07:38:42;9.00;;;1.60;;
15637;SDS011;26604;53.596;10.042;2023-08-31T07:41:09;3.75;;;1.80;;
15637;SDS011;26604;53.596;10.042;2023-08-31T07:43:37;5.25;;;1.75;;
15637;SDS011;26604;53.596;10.042;2023-08-31T07:46:04;4.85;;;1.60;;
15637;SDS011;26604;53.596;10.042;2023-08-31T07:48:31;2.42;;;1.38;;
15637;SDS011;26604;53.596;10.042;2023-08-31T07:50:58;2.47;;;1.20;;
15637;SDS011;26604;53.596;10.042;2023-08-31T07:53:25;5.10;;;1.45;;
15637;SDS011;26604;53.596;10.042;2023-08-31T07:55:52;3.65;;;1.40;;
15637;SDS011;26604;53.596;10.042;2023-08-31T07:58:20;4.35;;;1.95;;
15637;SDS011;26604;53.596;10.042;2023-08-31T08:00:48;6.45;;;1.30;;
15637;SDS011;26604;53.596;10.042;2023-08-31T08:03:15;9.10;;;1.60;;
15637;SDS011;26604;53.596;10.042;2023-08-31T08:05:42;5.68;;;1.80;;
15637;SDS011;26604;53.596;10.042;2023-08-31T08:08:09;3.78;;;2.08;;
15637;SDS011;26604;53.596;10.042;2023-08-31T08:10:36;3.25;;;1.50;;
15637;SDS011;26604;53.596;10.042;2023-08-31T08:13:03;2.75;;;1.60;;
15637;SDS011;26604;53.596;10.042;2023-08-31T08:15:30;4.95;;;1.50;;
15637;SDS011;26604;53.596;10.042;2023-08-31T08:17:59;5.72;;;2.05;;
15637;SDS011;26604;53.596;10.042;2023-08-31T08:20:26;3.88;;;1.90;;
15637;SDS011;26604;53.596;10.042;2023-08-31T08:22:53;2.95;;;1.50;;
15637;SDS011;26604;53.596;10.042;2023-08-31T08:25:21;5.75;;;1.63;;
15637;SDS011;26604;53.596;10.042;2023-08-31T08:27:48;4.88;;;1.67;;
15637;SDS011;26604;53.596;10.042;2023-08-31T08:30:15;3.72;;;1.85;;
15637;SDS011;26604;53.596;10.042;2023-08-31T08:32:41;3.72;;;1.55;;
15637;SDS011;26604;53.596;10.042;2023-08-31T08:35:10;4.32;;;1.70;;
15637;SDS011;26604;53.596;10.042;2023-08-31T08:37:37;3.33;;;1.58;;
15637;SDS011;26604;53.596;10.042;2023-08-31T08:40:04;7.15;;;1.50;;
15637;SDS011;26604;53.596;10.042;2023-08-31T08:42:32;4.03;;;1.40;;
15637;SDS011;26604;53.596;10.042;2023-08-31T08:45:04;3.10;;;1.38;;
15637;SDS011;26604;53.596;10.042;2023-08-31T08:47:34;3.63;;;1.45;;
15637;SDS011;26604;53.596;10.042;2023-08-31T08:50:01;4.63;;;1.88;;
15637;SDS011;26604;53.596;10.042;2023-08-31T08:52:30;5.00;;;1.60;;
15637;SDS011;26604;53.596;10.042;2023-08-31T08:54:57;3.20;;;1.45;;
15637;SDS011;26604;53.596;10.042;2023-08-31T08:57:27;3.65;;;1.40;;
15637;SDS011;26604;53.596;10.042;2023-08-31T08:59:57;6.25;;;1.60;;
15637;SDS011;26604;53.596;10.042;2023-08-31T09:02:24;5.75;;;1.67;;
15637;SDS011;26604;53.596;10.042;2023-08-31T09:04:51;5.32;;;1.50;;
15637;SDS011;26604;53.596;10.042;2023-08-31T09:07:19;2.13;;;1.20;;
15637;SDS011;26604;53.596;10.042;2023-08-31T09:09:51;2.75;;;1.40;;
15637;SDS011;26604;53.596;10.042;2023-08-31T09:12:18;4.00;;;1.58;;
15637;SDS011;26604;53.596;10.042;2023-08-31T09:14:58;4.00;;;1.50;;
15637;SDS011;26604;53.596;10.042;2023-08-31T09:17:26;2.95;;;1.50;;
15637;SDS011;26604;53.596;10.042;2023-08-31T09:20:03;3.20;;;1.50;;
15637;SDS011;26604;53.596;10.042;2023-08-31T09:22:32;2.58;;;1.50;;
15637;SDS011;26604;53.596;10.042;2023-08-31T09:25:01;5.75;;;1.50;;
15637;SDS011;26604;53.596;10.042;2023-08-31T09:27:29;4.78;;;2.05;;
15637;SDS011;26604;53.596;10.042;2023-08-31T09:29:58;5.10;;;1.73;;
15637;SDS011;26604;53.596;10.042;2023-08-31T09:32:25;4.15;;;1.73;;
15637;SDS011;26604;53.596;10.042;2023-08-31T09:34:51;4.32;;;1.65;;
15637;SDS011;26604;53.596;10.042;2023-08-31T09:37:18;5.18;;;1.50;;
15637;SDS011;26604;53.596;10.042;2023-08-31T09:39:45;3.17;;;1.40;;
15637;SDS011;26604;53.596;10.042;2023-08-31T09:42:13;6.22;;;1.85;;
15637;SDS011;26604;53.596;10.042;2023-08-31T09:44:42;4.85;;;1.52;;
15637;SDS011;26604;53.596;10.042;2023-08-31T09:47:10;2.97;;;1.42;;
15637;SDS011;26604;53.596;10.042;2023-08-31T09:49:39;3.45;;;1.90;;
15637;SDS011;26604;53.596;10.042;2023-08-31T09:52:08;6.88;;;1.65;;
15637;SDS011;26604;53.596;10.042;2023-08-31T09:54:36;4.13;;;1.70;;
15637;SDS011;26604;53.596;10.042;2023-08-31T09:57:03;5.53;;;1.70;;
15637;SDS011;26604;53.596;10.042;2023-08-31T09:59:33;6.72;;;1.80;;
15637;SDS011;26604;53.596;10.042;2023-08-31T10:02:00;4.60;;;1.40;;
15637;SDS011;26604;53.596;10.042;2023-08-31T10:04:29;3.60;;;1.63;;
15637;SDS011;26604;53.596;10.042;2023-08-31T10:06:58;5.97;;;2.70;;
15637;SDS011;26604;53.596;10.042;2023-08-31T10:09:25;4.45;;;1.85;;
15637;SDS011;26604;53.596;10.042;2023-08-31T10:11:54;3.90;;;1.67;;
15637;SDS011;26604;53.596;10.042;2023-08-31T10:14:21;6.28;;;1.88;;
15637;SDS011;26604;53.596;10.042;2023-08-31T10:16:50;4.82;;;1.95;;
15637;SDS011;26604;53.596;10.042;2023-08-31T10:19:18;5.43;;;1.77;;
15637;SDS011;26604;53.596;10.042;2023-08-31T10:21:45;3.45;;;1.70;;
15637;SDS011;26604;53.596;10.042;2023-08-31T10:24:12;7.05;;;1.67;;
15637;SDS011;26604;53.596;10.042;2023-08-31T10:26:39;3.88;;;1.70;;
15637;SDS011;26604;53.596;10.042;2023-08-31T10:29:06;5.15;;;1.98;;
15637;SDS011;26604;53.596;10.042;2023-08-31T10:31:52;5.80;;;1.88;;
15637;SDS011;26604;53.596;10.042;2023-08-31T10:34:19;3.95;;;1.95;;
15637;SDS011;26604;53.596;10.042;2023-08-31T10:37:01;4.30;;;2.00;;
15637;SDS011;26604;53.596;10.042;2023-08-31T10:39:37;4.03;;;1.92;;
15637;SDS011;26604;53.596;10.042;2023-08-31T10:42:04;5.32;;;2.05;;
15637;SDS011;26604;53.596;10.042;2023-08-31T10:44:31;4.18;;;2.20;;
15637;SDS011;26604;53.596;10.042;2023-08-31T10:47:00;3.15;;;1.80;;
15637;SDS011;26604;53.596;10.042;2023-08-31T10:49:29;2.33;;;1.83;;
15637;SDS011;26604;53.596;10.042;2023-08-31T10:52:01;4.60;;;1.75;;
15637;SDS011;26604;53.596;10.042;2023-08-31T10:54:42;3.65;;;2.00;;
15637;SDS011;26604;53.596;10.042;2023-08-31T10:57:09;4.03;;;1.80;;
15637;SDS011;26604;53.596;10.042;2023-08-31T10:59:41;4.50;;;2.20;;
15637;SDS011;26604;53.596;10.042;2023-08-31T11:02:10;5.00;;;2.47;;
15637;SDS011;26604;53.596;10.042;2023-08-31T11:04:54;3.75;;;1.90;;
15637;SDS011;26604;53.596;10.042;2023-08-31T11:07:23;3.30;;;1.55;;
15637;SDS011;26604;53.596;10.042;2023-08-31T11:09:51;2.22;;;2.03;;
15637;SDS011;26604;53.596;10.042;2023-08-31T11:12:21;2.92;;;1.50;;
15637;SDS011;26604;53.596;10.042;2023-08-31T11:14:48;3.22;;;1.70;;
15637;SDS011;26604;53.596;10.042;2023-08-31T11:17:16;3.85;;;1.63;;
15637;SDS011;26604;53.596;10.042;2023-08-31T11:19:43;3.22;;;1.48;;
15637;SDS011;26604;53.596;10.042;2023-08-31T11:22:11;2.88;;;1.45;;
15637;SDS011;26604;53.596;10.042;2023-08-31T11:24:38;2.95;;;1.40;;
15637;SDS011;26604;53.596;10.042;2023-08-31T11:27:07;3.75;;;1.42;;
15637;SDS011;26604;53.596;10.042;2023-08-31T11:29:36;1.52;;;1.20;;
15637;SDS011;26604;53.596;10.042;2023-08-31T11:32:05;1.58;;;1.08;;
15637;SDS011;26604;53.596;10.042;2023-08-31T11:34:33;3.45;;;1.50;;
15637;SDS011;26604;53.596;10.042;2023-08-31T11:37:01;2.80;;;1.13;;
15637;SDS011;26604;53.596;10.042;2023-08-31T11:39:29;1.83;;;1.30;;
15637;SDS011;26604;53.596;10.042;2023-08-31T11:41:56;2.10;;;1.40;;
15637;SDS011;26604;53.596;10.042;2023-08-31T11:44:23;1.60;;;1.08;;
15637;SDS011;26604;53.596;10.042;2023-08-31T11:46:51;1.92;;;0.95;;
15637;SDS011;26604;53.596;10.042;2023-08-31T11:49:18;2.67;;;0.93;;
15637;SDS011;26604;53.596;10.042;2023-08-31T11:51:47;1.38;;;0.70;;
15637;SDS011;26604;53.596;10.042;2023-08-31T11:54:16;2.65;;;1.00;;
15637;SDS011;26604;53.596;10.042;2023-08-31T11:56:43;2.85;;;1.08;;
15637;SDS011;26604;53.596;10.042;2023-08-31T11:59:15;4.07;;;1.08;;
15637;SDS011;26604;53.596;10.042;2023-08-31T12:01:42;2.05;;;0.85;;
15637;SDS011;26604;53.596;10.042;2023-08-31T12:04:12;3.78;;;1.63;;
15637;SDS011;26604;53.596;10.042;2023-08-31T12:06:40;1.40;;;0.60;;
15637;SDS011;26604;53.596;10.042;2023-08-31T12:09:10;1.63;;;0.80;;
15637;SDS011;26604;53.596;10.042;2023-08-31T12:11:37;3.65;;;0.70;;
15637;SDS011;26604;53.596;10.042;2023-08-31T12:14:06;2.15;;;0.70;;
15637;SDS011;26604;53.596;10.042;2023-08-31T12:16:45;1.05;;;0.57;;
15637;SDS011;26604;53.596;10.042;2023-08-31T12:19:12;1.40;;;0.70;;
15637;SDS011;26604;53.596;10.042;2023-08-31T12:21:39;2.08;;;0.90;;
15637;SDS011;26604;53.596;10.042;2023-08-31T12:24:06;1.25;;;0.65;;
15637;SDS011;26604;53.596;10.042;2023-08-31T12:26:35;5.18;;;1.67;;
15637;SDS011;26604;53.596;10.042;2023-08-31T12:29:02;3.03;;;0.77;;
15637;SDS011;26604;53.596;10.042;2023-08-31T12:31:30;1.02;;;0.63;;
15637;SDS011;26604;53.596;10.042;2023-08-31T12:33:57;2.78;;;0.60;;
15637;SDS011;26604;53.596;10.042;2023-08-31T12:36:25;2.00;;;0.77;;
15637;SDS011;26604;53.596;10.042;2023-08-31T12:38:52;2.08;;;0.68;;
15637;SDS011;26604;53.596;10.042;2023-08-31T12:41:18;1.90;;;0.73;;
15637;SDS011;26604;53.596;10.042;2023-08-31T12:43:47;2.15;;;0.80;;
15637;SDS011;26604;53.596;10.042;2023-08-31T12:46:14;1.80;;;0.57;;
15637;SDS011;26604;53.596;10.042;2023-08-31T12:48:42;2.40;;;0.82;;
15637;SDS011;26604;53.596;10.042;2023-08-31T12:51:09;6.28;;;0.68;;
15637;SDS011;26604;53.596;10.042;2023-08-31T12:53:37;2.70;;;0.68;;
15637;SDS011;26604;53.596;10.042;2023-08-31T12:56:05;2.40;;;0.65;;
15637;SDS011;26604;53.596;10.042;2023-08-31T12:58:32;2.67;;;0.85;;
15637;SDS011;26604;53.596;10.042;2023-08-31T13:01:00;1.98;;;0.70;;
15637;SDS011;26604;53.596;10.042;2023-08-31T13:03:28;2.20;;;0.80;;
15637;SDS011;26604;53.596;10.042;2023-08-31T13:05:55;0.80;;;0.60;;
15637;SDS011;26604;53.596;10.042;2023-08-31T13:08:22;1.55;;;0.70;;
15637;SDS011;26604;53.596;10.042;2023-08-31T13:10:52;1.40;;;0.80;;
15637;SDS011;26604;53.596;10.042;2023-08-31T13:13:20;1.90;;;0.70;;
15637;SDS011;26604;53.596;10.042;2023-08-31T13:15:47;1.50;;;0.63;;
15637;SDS011;26604;53.596;10.042;2023-08-31T13:18:15;1.10;;;0.57;;
15637;SDS011;26604;53.596;10.042;2023-08-31T13:20:48;1.02;;;0.63;;
15637;SDS011;26604;53.596;10.042;2023-08-31T13:23:15;1.25;;;0.40;;
15637;SDS011;26604;53.596;10.042;2023-08-31T13:25:42;1.08;;;0.63;;
15637;SDS011;26604;53.596;10.042;2023-08-31T13:28:09;1.35;;;0.60;;
15637;SDS011;26604;53.596;10.042;2023-08-31T13:30:36;1.08;;;0.68;;
15637;SDS011;26604;53.596;10.042;2023-08-31T13:33:03;1.00;;;0.60;;
15637;SDS011;26604;53.596;10.042;2023-08-31T13:35:31;3.97;;;0.80;;
15637;SDS011;26604;53.596;10.042;2023-08-31T13:37:58;1.27;;;0.60;;
15637;SDS011;26604;53.596;10.042;2023-08-31T13:40:26;1.35;;;0.40;;
15637;SDS011;26604;53.596;10.042;2023-08-31T13:42:54;2.83;;;0.90;;
15637;SDS011;26604;53.596;10.042;2023-08-31T13:45:22;1.48;;;0.70;;
15637;SDS011;26604;53.596;10.042;2023-08-31T13:47:49;2.00;;;0.80;;
15637;SDS011;26604;53.596;10.042;2023-08-31T13:50:16;1.35;;;0.60;;
15637;SDS011;26604;53.596;10.042;2023-08-31T13:52:44;2.33;;;0.70;;
15637;SDS011;26604;53.596;10.042;2023-08-31T13:55:11;3.38;;;0.85;;
15637;SDS011;26604;53.596;10.042;2023-08-31T13:57:40;2.15;;;0.80;;
15637;SDS011;26604;53.596;10.042;2023-08-31T14:00:08;4.45;;;1.00;;
15637;SDS011;26604;53.596;10.042;2023-08-31T14:02:36;1.55;;;0.60;;
15637;SDS011;26604;53.596;10.042;2023-08-31T14:05:05;2.15;;;0.90;;
15637;SDS011;26604;53.596;10.042;2023-08-31T14:07:33;3.88;;;0.70;;
15637;SDS011;26604;53.596;10.042;2023-08-31T14:10:02;0.95;;;0.60;;
15637;SDS011;26604;53.596;10.042;2023-08-31T14:12:30;1.15;;;0.60;;
15637;SDS011;26604;53.596;10.042;2023-08-31T14:14:57;1.15;;;0.55;;
15637;SDS011;26604;53.596;10.042;2023-08-31T14:17:25;2.28;;;0.80;;
15637;SDS011;26604;53.596;10.042;2023-08-31T14:19:52;1.50;;;0.60;;
15637;SDS011;26604;53.596;10.042;2023-08-31T14:22:19;0.63;;;0.50;;
15637;SDS011;26604;53.596;10.042;2023-08-31T14:24:47;1.77;;;0.70;;
15637;SDS011;26604;53.596;10.042;2023-08-31T14:27:16;2.78;;;0.70;;
15637;SDS011;26604;53.596;10.042;2023-08-31T14:29:42;1.77;;;0.63;;
15637;SDS011;26604;53.596;10.042;2023-08-31T14:32:09;2.35;;;0.63;;
15637;SDS011;26604;53.596;10.042;2023-08-31T14:34:36;2.08;;;0.75;;
15637;SDS011;26604;53.596;10.042;2023-08-31T14:37:03;3.28;;;0.88;;